sensor_id;sensor_type;location;lat;lon;timestamp;temperature;humidity
69626;DHT22;56847;51.984;5.088;2022-11-02T00:01:48;14.30;80.10
69626;DHT22;56847;51.984;5.088;2022-11-02T00:04:15;14.30;80.20
69626;DHT22;56847;51.984;5.088;2022-11-02T00:06:42;14.30;80.40
69626;DHT22;56847;51.984;5.088;2022-11-02T00:09:10;14.30;80.30
69626;DHT22;56847;51.984;5.088;2022-11-02T00:11:37;14.30;80.30
69626;DHT22;56847;51.984;5.088;2022-11-02T00:14:04;14.40;80.20
69626;DHT22;56847;51.984;5.088;2022-11-02T00:16:31;14.40;80.20
69626;DHT22;56847;51.984;5.088;2022-11-02T00:19:00;14.40;80.20
69626;DHT22;56847;51.984;5.088;2022-11-02T00:21:28;14.40;80.10
69626;DHT22;56847;51.984;5.088;2022-11-02T00:23:56;14.40;80.20
69626;DHT22;56847;51.984;5.088;2022-11-02T00:26:25;14.40;80.00
69626;DHT22;56847;51.984;5.088;2022-11-02T00:28:53;14.40;79.80
69626;DHT22;56847;51.984;5.088;2022-11-02T06:04:41;13.10;81.70
69626;DHT22;56847;51.984;5.088;2022-11-02T06:07:08;13.10;81.30
69626;DHT22;56847;51.984;5.088;2022-11-02T06:09:34;13.10;81.20
69626;DHT22;56847;51.984;5.088;2022-11-02T06:12:02;13.10;81.00
69626;DHT22;56847;51.984;5.088;2022-11-02T06:14:29;13.10;81.10
69626;DHT22;56847;51.984;5.088;2022-11-02T06:16:56;13.10;81.10
69626;DHT22;56847;51.984;5.088;2022-11-02T06:19:23;13.10;80.90
69626;DHT22;56847;51.984;5.088;2022-11-02T06:21:50;13.10;80.80
69626;DHT22;56847;51.984;5.088;2022-11-02T06:24:17;13.10;80.60
69626;DHT22;56847;51.984;5.088;2022-11-02T06:26:43;13.00;80.70
69626;DHT22;56847;51.984;5.088;2022-11-02T06:29:12;13.00;80.40
69626;DHT22;56847;51.984;5.088;2022-11-02T06:31:39;13.00;80.40
69626;DHT22;56847;51.984;5.088;2022-11-02T06:34:06;12.90;80.40
69626;DHT22;56847;51.984;5.088;2022-11-02T06:36:33;12.90;80.30
69626;DHT22;56847;51.984;5.088;2022-11-02T06:39:00;12.90;80.30
69626;DHT22;56847;51.984;5.088;2022-11-02T06:41:27;12.90;80.10
69626;DHT22;56847;51.984;5.088;2022-11-02T06:43:54;12.90;80.10
69626;DHT22;56847;51.984;5.088;2022-11-02T06:46:21;12.90;80.00
69626;DHT22;56847;51.984;5.088;2022-11-02T06:48:48;12.90;80.00
69626;DHT22;56847;51.984;5.088;2022-11-02T06:51:15;12.80;79.70
69626;DHT22;56847;51.984;5.088;2022-11-02T06:53:42;12.80;79.70
69626;DHT22;56847;51.984;5.088;2022-11-02T06:56:08;12.80;79.60
69626;DHT22;56847;51.984;5.088;2022-11-02T06:58:35;12.80;79.40
69626;DHT22;56847;51.984;5.088;2022-11-02T07:01:05;12.80;79.70
69626;DHT22;56847;51.984;5.088;2022-11-02T07:03:35;12.80;79.70
69626;DHT22;56847;51.984;5.088;2022-11-02T07:06:02;12.90;79.40
69626;DHT22;56847;51.984;5.088;2022-11-02T07:08:32;12.90;79.30
69626;DHT22;56847;51.984;5.088;2022-11-02T07:10:59;13.00;79.10
69626;DHT22;56847;51.984;5.088;2022-11-02T07:13:26;13.00;79.00
69626;DHT22;56847;51.984;5.088;2022-11-02T07:15:53;13.00;78.90
69626;DHT22;56847;51.984;5.088;2022-11-02T07:18:21;13.10;78.90
69626;DHT22;56847;51.984;5.088;2022-11-02T07:20:48;13.10;78.30
69626;DHT22;56847;51.984;5.088;2022-11-02T07:23:15;13.10;78.40
69626;DHT22;56847;51.984;5.088;2022-11-02T07:25:41;13.00;78.40
69626;DHT22;56847;51.984;5.088;2022-11-02T07:28:08;13.00;78.40
69626;DHT22;56847;51.984;5.088;2022-11-02T07:30:35;13.00;78.80
69626;DHT22;56847;51.984;5.088;2022-11-02T07:33:02;13.00;78.50
69626;DHT22;56847;51.984;5.088;2022-11-02T07:35:30;13.00;78.60
69626;DHT22;56847;51.984;5.088;2022-11-02T07:37:59;13.00;78.60
69626;DHT22;56847;51.984;5.088;2022-11-02T07:40:27;13.00;78.60
69626;DHT22;56847;51.984;5.088;2022-11-02T07:42:55;12.90;78.90
69626;DHT22;56847;51.984;5.088;2022-11-02T07:45:38;12.80;79.20
69626;DHT22;56847;51.984;5.088;2022-11-02T07:48:05;12.70;79.50
69626;DHT22;56847;51.984;5.088;2022-11-02T07:50:32;12.80;79.80
69626;DHT22;56847;51.984;5.088;2022-11-02T07:52:59;12.80;79.70
69626;DHT22;56847;51.984;5.088;2022-11-02T07:55:28;12.80;79.40
69626;DHT22;56847;51.984;5.088;2022-11-02T07:57:58;12.90;79.60
69626;DHT22;56847;51.984;5.088;2022-11-02T08:00:27;13.00;79.60
69626;DHT22;56847;51.984;5.088;2022-11-02T08:02:59;13.10;79.60
69626;DHT22;56847;51.984;5.088;2022-11-02T08:05:28;13.20;79.50
69626;DHT22;56847;51.984;5.088;2022-11-02T08:08:04;13.40;78.80
69626;DHT22;56847;51.984;5.088;2022-11-02T08:10:33;13.50;78.50
69626;DHT22;56847;51.984;5.088;2022-11-02T08:13:07;13.60;78.00
69626;DHT22;56847;51.984;5.088;2022-11-02T08:15:34;13.70;77.40
69626;DHT22;56847;51.984;5.088;2022-11-02T08:18:07;13.70;77.20
69626;DHT22;56847;51.984;5.088;2022-11-02T08:20:35;13.80;77.00
69626;DHT22;56847;51.984;5.088;2022-11-02T08:23:02;13.70;76.60
69626;DHT22;56847;51.984;5.088;2022-11-02T08:25:30;13.80;76.80
69626;DHT22;56847;51.984;5.088;2022-11-02T08:27:59;13.80;76.80
69626;DHT22;56847;51.984;5.088;2022-11-02T08:30:28;13.90;76.60
69626;DHT22;56847;51.984;5.088;2022-11-02T08:32:55;13.80;76.50
69626;DHT22;56847;51.984;5.088;2022-11-02T08:35:27;13.80;76.60
69626;DHT22;56847;51.984;5.088;2022-11-02T08:37:54;13.80;77.20
69626;DHT22;56847;51.984;5.088;2022-11-02T08:40:22;13.90;77.00
69626;DHT22;56847;51.984;5.088;2022-11-02T08:42:53;14.00;76.70
69626;DHT22;56847;51.984;5.088;2022-11-02T08:45:20;14.00;76.60
69626;DHT22;56847;51.984;5.088;2022-11-02T08:47:47;14.10;76.30
69626;DHT22;56847;51.984;5.088;2022-11-02T08:50:14;14.20;76.20
69626;DHT22;56847;51.984;5.088;2022-11-02T08:52:41;14.20;76.10
69626;DHT22;56847;51.984;5.088;2022-11-02T08:55:08;14.30;76.30
69626;DHT22;56847;51.984;5.088;2022-11-02T08:57:50;14.40;76.20
69626;DHT22;56847;51.984;5.088;2022-11-02T09:00:20;14.50;75.50
69626;DHT22;56847;51.984;5.088;2022-11-02T09:03:04;14.50;75.50
69626;DHT22;56847;51.984;5.088;2022-11-02T09:05:34;14.60;75.00
69626;DHT22;56847;51.984;5.088;2022-11-02T09:08:03;14.70;75.30
69626;DHT22;56847;51.984;5.088;2022-11-02T09:10:33;14.80;74.20
69626;DHT22;56847;51.984;5.088;2022-11-02T09:13:03;14.80;74.10
69626;DHT22;56847;51.984;5.088;2022-11-02T09:15:33;14.80;73.90
69626;DHT22;56847;51.984;5.088;2022-11-02T09:18:02;14.90;73.70
69626;DHT22;56847;51.984;5.088;2022-11-02T09:20:30;14.90;73.20
69626;DHT22;56847;51.984;5.088;2022-11-02T09:22:57;15.00;72.70
69626;DHT22;56847;51.984;5.088;2022-11-02T09:25:25;14.90;72.60
69626;DHT22;56847;51.984;5.088;2022-11-02T09:27:55;15.00;72.90
69626;DHT22;56847;51.984;5.088;2022-11-02T09:30:24;15.10;72.40
69626;DHT22;56847;51.984;5.088;2022-11-02T09:32:59;15.10;72.50
69626;DHT22;56847;51.984;5.088;2022-11-02T09:35:28;15.20;73.10
69626;DHT22;56847;51.984;5.088;2022-11-02T09:37:55;15.30;72.50
69626;DHT22;56847;51.984;5.088;2022-11-02T09:40:24;15.30;71.80
69626;DHT22;56847;51.984;5.088;2022-11-02T09:46:04;15.40;72.50
69626;DHT22;56847;51.984;5.088;2022-11-02T09:48:46;15.50;71.60
69626;DHT22;56847;51.984;5.088;2022-11-02T09:51:20;15.50;72.10
69626;DHT22;56847;51.984;5.088;2022-11-02T09:56:23;15.70;71.80
69626;DHT22;56847;51.984;5.088;2022-11-02T09:59:04;15.80;70.90
69626;DHT22;56847;51.984;5.088;2022-11-02T10:02:01;15.90;71.20
69626;DHT22;56847;51.984;5.088;2022-11-02T10:04:31;16.00;71.00
69626;DHT22;56847;51.984;5.088;2022-11-02T10:10:10;16.10;69.70
69626;DHT22;56847;51.984;5.088;2022-11-02T10:13:01;16.10;70.20
69626;DHT22;56847;51.984;5.088;2022-11-02T10:15:41;16.10;70.20
69626;DHT22;56847;51.984;5.088;2022-11-02T10:18:19;16.10;68.50
69626;DHT22;56847;51.984;5.088;2022-11-02T10:20:53;16.10;68.70
69626;DHT22;56847;51.984;5.088;2022-11-02T10:23:29;16.10;69.60
69626;DHT22;56847;51.984;5.088;2022-11-02T10:25:59;16.10;69.00
69626;DHT22;56847;51.984;5.088;2022-11-02T10:28:33;16.20;69.10
69626;DHT22;56847;51.984;5.088;2022-11-02T10:31:03;16.20;68.80
69626;DHT22;56847;51.984;5.088;2022-11-02T10:33:32;16.20;68.50
69626;DHT22;56847;51.984;5.088;2022-11-02T10:36:16;16.20;68.30
69626;DHT22;56847;51.984;5.088;2022-11-02T10:39:01;16.20;68.50
69626;DHT22;56847;51.984;5.088;2022-11-02T10:41:40;16.20;68.20
69626;DHT22;56847;51.984;5.088;2022-11-02T10:46:56;16.20;67.40
69626;DHT22;56847;51.984;5.088;2022-11-02T10:52:18;16.20;67.90
69626;DHT22;56847;51.984;5.088;2022-11-02T10:54:49;16.10;67.70
69626;DHT22;56847;51.984;5.088;2022-11-02T10:57:22;16.10;67.20
69626;DHT22;56847;51.984;5.088;2022-11-02T11:00:25;16.10;67.30
69626;DHT22;56847;51.984;5.088;2022-11-02T11:03:11;16.20;68.00
69626;DHT22;56847;51.984;5.088;2022-11-02T11:05:54;16.20;68.00
69626;DHT22;56847;51.984;5.088;2022-11-02T11:08:28;16.30;67.70
69626;DHT22;56847;51.984;5.088;2022-11-02T11:11:19;16.40;67.40
69626;DHT22;56847;51.984;5.088;2022-11-02T11:16:49;16.40;67.00
69626;DHT22;56847;51.984;5.088;2022-11-02T11:22:36;16.50;65.90
69626;DHT22;56847;51.984;5.088;2022-11-02T11:27:50;16.50;65.60
69626;DHT22;56847;51.984;5.088;2022-11-02T11:33:18;16.50;65.40
69626;DHT22;56847;51.984;5.088;2022-11-02T11:35:48;16.40;65.10
69626;DHT22;56847;51.984;5.088;2022-11-02T11:38:18;16.50;65.40
69626;DHT22;56847;51.984;5.088;2022-11-02T11:40:47;16.60;65.70
69626;DHT22;56847;51.984;5.088;2022-11-02T11:43:23;16.60;65.20
69626;DHT22;56847;51.984;5.088;2022-11-02T11:46:02;16.70;64.00
69626;DHT22;56847;51.984;5.088;2022-11-02T11:48:44;16.60;63.60
69626;DHT22;56847;51.984;5.088;2022-11-02T11:56:42;16.60;64.20
69626;DHT22;56847;51.984;5.088;2022-11-02T11:59:24;16.60;63.70
69626;DHT22;56847;51.984;5.088;2022-11-02T12:02:01;16.60;63.90
69626;DHT22;56847;51.984;5.088;2022-11-02T12:04:36;16.60;63.70
69626;DHT22;56847;51.984;5.088;2022-11-02T12:07:37;16.60;62.40
69626;DHT22;56847;51.984;5.088;2022-11-02T12:10:23;16.50;61.80
69626;DHT22;56847;51.984;5.088;2022-11-02T12:13:11;16.50;62.40
69626;DHT22;56847;51.984;5.088;2022-11-02T12:18:46;16.40;62.00
69626;DHT22;56847;51.984;5.088;2022-11-02T12:25:05;16.50;63.20
69626;DHT22;56847;51.984;5.088;2022-11-02T12:30:20;16.50;63.10
69626;DHT22;56847;51.984;5.088;2022-11-02T12:32:57;16.60;63.30
69626;DHT22;56847;51.984;5.088;2022-11-02T12:41:09;16.60;61.90
69626;DHT22;56847;51.984;5.088;2022-11-02T12:43:44;16.60;60.50
69626;DHT22;56847;51.984;5.088;2022-11-02T12:49:39;16.60;61.80
69626;DHT22;56847;51.984;5.088;2022-11-02T12:54:59;16.70;60.90
69626;DHT22;56847;51.984;5.088;2022-11-02T12:57:29;16.60;60.90
69626;DHT22;56847;51.984;5.088;2022-11-02T13:00:19;16.60;61.40
69626;DHT22;56847;51.984;5.088;2022-11-02T13:05:22;16.50;61.80
69626;DHT22;56847;51.984;5.088;2022-11-02T13:10:38;16.70;62.30
69626;DHT22;56847;51.984;5.088;2022-11-02T13:13:12;16.70;62.30
69626;DHT22;56847;51.984;5.088;2022-11-02T13:15:43;16.70;61.50
69626;DHT22;56847;51.984;5.088;2022-11-02T13:18:16;16.70;61.60
69626;DHT22;56847;51.984;5.088;2022-11-02T13:20:52;16.80;61.50
69626;DHT22;56847;51.984;5.088;2022-11-02T13:23:30;16.80;61.40
69626;DHT22;56847;51.984;5.088;2022-11-02T13:26:03;16.80;61.10
69626;DHT22;56847;51.984;5.088;2022-11-02T13:31:40;16.80;61.30
69626;DHT22;56847;51.984;5.088;2022-11-02T13:34:13;16.90;61.50
69626;DHT22;56847;51.984;5.088;2022-11-02T13:36:43;16.90;61.00
69626;DHT22;56847;51.984;5.088;2022-11-02T13:39:25;16.90;62.00
69626;DHT22;56847;51.984;5.088;2022-11-02T13:42:04;17.10;61.90
69626;DHT22;56847;51.984;5.088;2022-11-02T13:50:18;17.40;60.80
69626;DHT22;56847;51.984;5.088;2022-11-02T13:52:54;17.30;60.90
69626;DHT22;56847;51.984;5.088;2022-11-02T13:55:37;17.40;61.20
69626;DHT22;56847;51.984;5.088;2022-11-02T14:00:51;17.60;60.80
69626;DHT22;56847;51.984;5.088;2022-11-02T14:03:23;17.50;61.20
69626;DHT22;56847;51.984;5.088;2022-11-02T14:06:07;17.40;61.80
69626;DHT22;56847;51.984;5.088;2022-11-02T14:08:39;17.60;61.80
69626;DHT22;56847;51.984;5.088;2022-11-02T14:26:59;18.10;60.30
69626;DHT22;56847;51.984;5.088;2022-11-02T14:29:49;18.30;60.00
69626;DHT22;56847;51.984;5.088;2022-11-02T14:40:35;17.80;59.90
69626;DHT22;56847;51.984;5.088;2022-11-02T14:43:48;17.50;60.20
69626;DHT22;56847;51.984;5.088;2022-11-02T14:48:54;17.10;60.80
69626;DHT22;56847;51.984;5.088;2022-11-02T14:51:27;17.10;61.10
69626;DHT22;56847;51.984;5.088;2022-11-02T14:53:57;16.90;61.10
69626;DHT22;56847;51.984;5.088;2022-11-02T14:56:49;16.90;61.50
69626;DHT22;56847;51.984;5.088;2022-11-02T14:59:20;16.80;61.90
69626;DHT22;56847;51.984;5.088;2022-11-02T15:02:00;16.70;62.30
69626;DHT22;56847;51.984;5.088;2022-11-02T15:04:29;16.60;62.60
69626;DHT22;56847;51.984;5.088;2022-11-02T15:06:58;16.50;62.70
69626;DHT22;56847;51.984;5.088;2022-11-02T15:09:53;16.40;62.90
69626;DHT22;56847;51.984;5.088;2022-11-02T15:12:35;16.30;63.20
69626;DHT22;56847;51.984;5.088;2022-11-02T15:22:51;16.00;64.20
69626;DHT22;56847;51.984;5.088;2022-11-02T15:25:25;15.90;64.60
69626;DHT22;56847;51.984;5.088;2022-11-02T15:27:56;15.90;64.80
69626;DHT22;56847;51.984;5.088;2022-11-02T15:30:23;15.80;65.00
69626;DHT22;56847;51.984;5.088;2022-11-02T15:33:03;15.80;65.20
69626;DHT22;56847;51.984;5.088;2022-11-02T15:35:35;15.70;65.40
69626;DHT22;56847;51.984;5.088;2022-11-02T15:38:04;15.70;65.40
69626;DHT22;56847;51.984;5.088;2022-11-02T15:55:59;15.30;66.30
69626;DHT22;56847;51.984;5.088;2022-11-02T16:01:19;15.20;66.60
69626;DHT22;56847;51.984;5.088;2022-11-02T16:04:07;15.20;66.60
69626;DHT22;56847;51.984;5.088;2022-11-02T16:06:40;15.10;66.70
69626;DHT22;56847;51.984;5.088;2022-11-02T16:12:11;15.10;66.70
69626;DHT22;56847;51.984;5.088;2022-11-02T16:14:59;15.00;66.70
69626;DHT22;56847;51.984;5.088;2022-11-02T16:17:30;15.00;66.60
69626;DHT22;56847;51.984;5.088;2022-11-02T16:22:59;14.90;66.50
69626;DHT22;56847;51.984;5.088;2022-11-02T16:27:53;14.90;66.20
69626;DHT22;56847;51.984;5.088;2022-11-02T16:30:21;14.80;66.00
69626;DHT22;56847;51.984;5.088;2022-11-02T16:32:52;14.80;66.00
69626;DHT22;56847;51.984;5.088;2022-11-02T16:35:25;14.80;65.80
69626;DHT22;56847;51.984;5.088;2022-11-02T16:37:52;14.80;65.80
69626;DHT22;56847;51.984;5.088;2022-11-02T16:40:20;14.80;65.60
69626;DHT22;56847;51.984;5.088;2022-11-02T16:42:51;14.80;65.80
69626;DHT22;56847;51.984;5.088;2022-11-02T16:45:38;14.70;65.60
69626;DHT22;56847;51.984;5.088;2022-11-02T16:48:30;14.70;65.60
69626;DHT22;56847;51.984;5.088;2022-11-02T16:53:42;14.70;65.70
69626;DHT22;56847;51.984;5.088;2022-11-02T16:56:27;14.70;65.80
69626;DHT22;56847;51.984;5.088;2022-11-02T16:58:58;14.70;65.90
69626;DHT22;56847;51.984;5.088;2022-11-02T17:01:27;14.60;65.90
69626;DHT22;56847;51.984;5.088;2022-11-02T17:03:55;14.60;66.10
69626;DHT22;56847;51.984;5.088;2022-11-02T17:06:22;14.60;66.20
69626;DHT22;56847;51.984;5.088;2022-11-02T17:08:52;14.50;66.40
69626;DHT22;56847;51.984;5.088;2022-11-02T17:11:20;14.50;66.50
69626;DHT22;56847;51.984;5.088;2022-11-02T17:13:53;14.50;66.60
69626;DHT22;56847;51.984;5.088;2022-11-02T17:16:21;14.50;66.60
69626;DHT22;56847;51.984;5.088;2022-11-02T17:18:48;14.50;66.60
69626;DHT22;56847;51.984;5.088;2022-11-02T17:21:26;14.40;66.60
69626;DHT22;56847;51.984;5.088;2022-11-02T17:23:56;14.40;66.60
69626;DHT22;56847;51.984;5.088;2022-11-02T17:26:34;14.40;66.60
69626;DHT22;56847;51.984;5.088;2022-11-02T17:31:55;14.40;66.70
69626;DHT22;56847;51.984;5.088;2022-11-02T17:34:23;14.40;66.80
69626;DHT22;56847;51.984;5.088;2022-11-02T17:36:53;14.30;66.50
69626;DHT22;56847;51.984;5.088;2022-11-02T17:39:20;14.40;66.50
69626;DHT22;56847;51.984;5.088;2022-11-02T17:41:55;14.40;66.40
69626;DHT22;56847;51.984;5.088;2022-11-02T17:44:41;14.40;66.50
69626;DHT22;56847;51.984;5.088;2022-11-02T17:47:10;14.40;66.50
69626;DHT22;56847;51.984;5.088;2022-11-02T17:49:38;14.40;66.50
69626;DHT22;56847;51.984;5.088;2022-11-02T17:52:05;14.40;66.30
69626;DHT22;56847;51.984;5.088;2022-11-02T17:54:34;14.40;66.60
69626;DHT22;56847;51.984;5.088;2022-11-02T17:57:07;14.40;66.60
69626;DHT22;56847;51.984;5.088;2022-11-02T17:59:36;14.40;66.20
69626;DHT22;56847;51.984;5.088;2022-11-02T18:02:11;14.40;65.90
69626;DHT22;56847;51.984;5.088;2022-11-02T18:04:39;14.40;66.00
69626;DHT22;56847;51.984;5.088;2022-11-02T18:07:06;14.40;66.00
69626;DHT22;56847;51.984;5.088;2022-11-02T18:09:33;14.40;66.00
69626;DHT22;56847;51.984;5.088;2022-11-02T18:12:00;14.50;65.80
69626;DHT22;56847;51.984;5.088;2022-11-02T18:14:27;14.40;65.70
69626;DHT22;56847;51.984;5.088;2022-11-02T18:16:54;14.40;65.90
69626;DHT22;56847;51.984;5.088;2022-11-02T18:19:21;14.40;65.80
69626;DHT22;56847;51.984;5.088;2022-11-02T18:21:48;14.40;65.70
69626;DHT22;56847;51.984;5.088;2022-11-02T18:24:15;14.40;65.60
69626;DHT22;56847;51.984;5.088;2022-11-02T18:26:43;14.40;65.50
69626;DHT22;56847;51.984;5.088;2022-11-02T18:29:12;14.40;65.40
69626;DHT22;56847;51.984;5.088;2022-11-02T18:31:39;14.40;65.50
69626;DHT22;56847;51.984;5.088;2022-11-02T18:34:06;14.40;65.40
69626;DHT22;56847;51.984;5.088;2022-11-02T18:36:38;14.40;65.40
69626;DHT22;56847;51.984;5.088;2022-11-02T18:39:06;14.50;65.40
69626;DHT22;56847;51.984;5.088;2022-11-02T18:41:36;14.40;65.30
69626;DHT22;56847;51.984;5.088;2022-11-02T18:44:29;14.40;65.60
69626;DHT22;56847;51.984;5.088;2022-11-02T18:47:02;14.40;65.40
69626;DHT22;56847;51.984;5.088;2022-11-02T19:00:24;14.40;65.40
69626;DHT22;56847;51.984;5.088;2022-11-02T19:02:51;14.30;65.40
69626;DHT22;56847;51.984;5.088;2022-11-02T19:05:21;14.30;65.30
69626;DHT22;56847;51.984;5.088;2022-11-02T19:08:10;14.30;65.40
69626;DHT22;56847;51.984;5.088;2022-11-02T19:10:56;14.30;65.60
69626;DHT22;56847;51.984;5.088;2022-11-02T19:13:24;14.30;65.70
69626;DHT22;56847;51.984;5.088;2022-11-02T19:15:51;14.30;65.70
69626;DHT22;56847;51.984;5.088;2022-11-02T19:18:18;14.30;65.70
69626;DHT22;56847;51.984;5.088;2022-11-02T19:20:45;14.30;65.60
69626;DHT22;56847;51.984;5.088;2022-11-02T19:23:13;14.20;65.60
69626;DHT22;56847;51.984;5.088;2022-11-02T19:25:40;14.20;65.60
69626;DHT22;56847;51.984;5.088;2022-11-02T19:28:06;14.20;65.60
69626;DHT22;56847;51.984;5.088;2022-11-02T19:30:36;14.20;65.70
69626;DHT22;56847;51.984;5.088;2022-11-02T19:33:06;14.20;65.70
69626;DHT22;56847;51.984;5.088;2022-11-02T19:35:34;14.20;65.50
69626;DHT22;56847;51.984;5.088;2022-11-02T19:38:03;14.20;65.70
69626;DHT22;56847;51.984;5.088;2022-11-02T19:40:30;14.20;65.50
69626;DHT22;56847;51.984;5.088;2022-11-02T19:42:57;14.20;65.50
69626;DHT22;56847;51.984;5.088;2022-11-02T19:45:24;14.20;65.60
69626;DHT22;56847;51.984;5.088;2022-11-02T19:47:51;14.20;65.50
69626;DHT22;56847;51.984;5.088;2022-11-02T19:50:18;14.20;65.60
69626;DHT22;56847;51.984;5.088;2022-11-02T19:52:48;14.20;65.60
69626;DHT22;56847;51.984;5.088;2022-11-02T19:55:16;14.30;65.70
69626;DHT22;56847;51.984;5.088;2022-11-02T19:57:44;14.30;65.80
69626;DHT22;56847;51.984;5.088;2022-11-02T20:00:11;14.30;65.60
69626;DHT22;56847;51.984;5.088;2022-11-02T20:02:38;14.30;65.60
69626;DHT22;56847;51.984;5.088;2022-11-02T20:05:06;14.30;65.60
69626;DHT22;56847;51.984;5.088;2022-11-02T20:07:33;14.30;65.70
69626;DHT22;56847;51.984;5.088;2022-11-02T20:10:01;14.30;65.60
69626;DHT22;56847;51.984;5.088;2022-11-02T20:12:28;14.20;65.60
69626;DHT22;56847;51.984;5.088;2022-11-02T20:14:54;14.30;65.80
69626;DHT22;56847;51.984;5.088;2022-11-02T20:17:21;14.30;65.80
69626;DHT22;56847;51.984;5.088;2022-11-02T22:08:03;14.00;67.80
69626;DHT22;56847;51.984;5.088;2022-11-02T22:10:56;14.00;67.90
69626;DHT22;56847;51.984;5.088;2022-11-02T22:13:24;14.00;67.90
69626;DHT22;56847;51.984;5.088;2022-11-02T22:16:25;14.00;68.00
69626;DHT22;56847;51.984;5.088;2022-11-02T22:19:03;14.00;68.10
69626;DHT22;56847;51.984;5.088;2022-11-02T22:21:33;14.00;68.20
69626;DHT22;56847;51.984;5.088;2022-11-02T22:24:01;14.00;68.30
69626;DHT22;56847;51.984;5.088;2022-11-02T22:26:29;14.00;68.30
69626;DHT22;56847;51.984;5.088;2022-11-02T22:29:00;14.00;68.30
69626;DHT22;56847;51.984;5.088;2022-11-02T22:31:31;14.00;68.40
69626;DHT22;56847;51.984;5.088;2022-11-02T22:33:59;14.00;68.50
69626;DHT22;56847;51.984;5.088;2022-11-02T22:36:29;14.00;68.40
69626;DHT22;56847;51.984;5.088;2022-11-02T22:38:58;14.00;68.40
69626;DHT22;56847;51.984;5.088;2022-11-02T22:46:40;13.90;68.60
69626;DHT22;56847;51.984;5.088;2022-11-02T22:49:09;13.90;68.70
69626;DHT22;56847;51.984;5.088;2022-11-02T22:51:43;13.90;68.60
69626;DHT22;56847;51.984;5.088;2022-11-02T22:54:13;13.90;68.70
69626;DHT22;56847;51.984;5.088;2022-11-02T22:56:42;13.90;68.80
69626;DHT22;56847;51.984;5.088;2022-11-02T22:59:10;13.90;68.80
69626;DHT22;56847;51.984;5.088;2022-11-02T23:01:38;13.90;68.90
69626;DHT22;56847;51.984;5.088;2022-11-02T23:04:06;13.90;68.80
69626;DHT22;56847;51.984;5.088;2022-11-02T23:06:33;13.90;68.80
69626;DHT22;56847;51.984;5.088;2022-11-02T23:09:01;13.90;68.70
69626;DHT22;56847;51.984;5.088;2022-11-02T23:11:31;13.90;68.70
69626;DHT22;56847;51.984;5.088;2022-11-02T23:14:01;13.80;68.70
69626;DHT22;56847;51.984;5.088;2022-11-02T23:16:31;13.80;68.80
69626;DHT22;56847;51.984;5.088;2022-11-02T23:19:02;13.80;68.70
69626;DHT22;56847;51.984;5.088;2022-11-02T23:22:05;13.80;68.80
69626;DHT22;56847;51.984;5.088;2022-11-02T23:25:03;13.80;68.90
69626;DHT22;56847;51.984;5.088;2022-11-02T23:27:46;13.70;69.00
69626;DHT22;56847;51.984;5.088;2022-11-02T23:30:34;13.70;69.00
69626;DHT22;56847;51.984;5.088;2022-11-02T23:33:22;13.60;69.10
69626;DHT22;56847;51.984;5.088;2022-11-02T23:35:53;13.60;69.20
69626;DHT22;56847;51.984;5.088;2022-11-02T23:38:44;13.60;69.20
69626;DHT22;56847;51.984;5.088;2022-11-02T23:41:32;13.60;69.30
69626;DHT22;56847;51.984;5.088;2022-11-02T23:44:00;13.60;69.40
69626;DHT22;56847;51.984;5.088;2022-11-02T23:46:46;13.60;69.40
69626;DHT22;56847;51.984;5.088;2022-11-02T23:49:17;13.60;69.30
69626;DHT22;56847;51.984;5.088;2022-11-02T23:51:45;13.60;69.30
69626;DHT22;56847;51.984;5.088;2022-11-02T23:54:31;13.70;69.40
69626;DHT22;56847;51.984;5.088;2022-11-02T23:57:16;13.70;69.40
69626;DHT22;56847;51.984;5.088;2022-11-02T23:59:44;13.60;69.30
